createdAt,value
2023-04-06T00:01:09.920Z,101520.53
2023-04-06T00:03:37.370Z,101524.28
2023-04-06T00:06:05.042Z,101519.56
2023-04-06T00:08:32.216Z,101516.78
2023-04-06T00:10:59.434Z,101509.84
2023-04-06T00:13:26.887Z,101514.84
2023-04-06T00:15:54.071Z,101514.97
2023-04-06T00:18:21.477Z,101520.44
2023-04-06T00:20:48.742Z,101512.31
2023-04-06T00:23:16.361Z,101505.63
2023-04-06T00:25:43.523Z,101506.50
2023-04-06T00:28:10.762Z,101509.66
2023-04-06T00:30:37.995Z,101507.34
2023-04-06T00:33:05.528Z,101506.50
2023-04-06T00:35:32.746Z,101502.09
2023-04-06T00:37:59.927Z,101503.72
2023-04-06T00:40:29.339Z,101504.34
2023-04-06T00:42:56.955Z,101500.19
2023-04-06T00:45:24.160Z,101503.63
2023-04-06T00:47:51.396Z,101500.06
2023-04-06T00:50:18.986Z,101502.84
2023-04-06T00:52:46.229Z,101503.72
2023-04-06T00:55:13.426Z,101497.28
2023-04-06T00:57:40.637Z,101502.84
2023-04-06T01:00:08.408Z,101492.22
2023-04-06T01:02:35.778Z,101496.00
2023-04-06T01:05:03.766Z,101495.13
2023-04-06T01:07:31.183Z,101491.59
2023-04-06T01:09:58.604Z,101486.13
2023-04-06T01:12:26.477Z,101484.31
2023-04-06T01:14:53.839Z,101491.50
2023-04-06T01:17:21.009Z,101491.50
2023-04-06T01:19:50.281Z,101487.19
2023-04-06T01:22:18.043Z,101492.44
2023-04-06T01:24:45.739Z,101496.00
2023-04-06T01:27:13.371Z,101494.25
2023-04-06T01:29:44.025Z,101490.84
2023-04-06T01:32:11.267Z,101496.22
2023-04-06T01:34:38.624Z,101493.63
2023-04-06T01:37:05.784Z,101498.00
2023-04-06T01:39:32.972Z,101494.47
2023-04-06T01:42:00.172Z,101495.44
2023-04-06T01:44:27.923Z,101495.44
2023-04-06T01:46:55.252Z,101488.25
2023-04-06T01:49:22.438Z,101490.94
2023-04-06T01:51:49.593Z,101488.25
2023-04-06T01:54:16.812Z,101490.22
2023-04-06T01:56:44.152Z,101483.75
2023-04-06T01:59:11.609Z,101486.44
2023-04-06T02:01:39.036Z,101484.59
2023-04-06T02:04:06.331Z,101479.38
2023-04-06T02:06:33.484Z,101487.63
2023-04-06T02:09:00.764Z,101482.16
2023-04-06T02:11:27.928Z,101482.38
2023-04-06T02:13:56.624Z,101484.84
2023-04-06T02:16:23.947Z,101481.50
2023-04-06T02:18:51.886Z,101480.63
2023-04-06T02:21:21.139Z,101482.03
2023-04-06T02:23:48.733Z,101474.22
2023-04-06T02:26:16.485Z,101481.28
2023-04-06T02:28:43.706Z,101479.03
2023-04-06T02:31:12.001Z,101473.38
2023-04-06T02:33:39.230Z,101476.13
2023-04-06T02:36:06.505Z,101467.38
2023-04-06T02:38:33.749Z,101477.09
2023-04-06T02:41:01.160Z,101472.72
2023-04-06T02:43:28.371Z,101471.09
2023-04-06T02:45:55.874Z,101477.31
2023-04-06T02:48:23.087Z,101479.03
2023-04-06T02:50:50.295Z,101485.47
2023-04-06T02:53:17.478Z,101480.13
2023-04-06T02:55:44.675Z,101481.81
2023-04-06T02:58:11.891Z,101479.13
2023-04-06T03:00:39.385Z,101477.44
2023-04-06T03:03:06.778Z,101485.47
2023-04-06T03:05:34.131Z,101483.09
2023-04-06T03:08:01.312Z,101484.59
2023-04-06T03:10:28.464Z,101476.66
2023-04-06T03:12:55.683Z,101483.72
2023-04-06T03:15:22.914Z,101481.25
2023-04-06T03:17:50.250Z,101484.16
2023-04-06T03:20:17.456Z,101488.66
2023-04-06T03:22:44.648Z,101485.88
2023-04-06T03:25:11.824Z,101485.75
2023-04-06T03:27:39.015Z,101490.38
2023-04-06T03:30:07.247Z,101485.03
2023-04-06T03:32:34.473Z,101495.75
2023-04-06T03:35:01.769Z,101490.47
2023-04-06T03:37:28.957Z,101489.50
2023-04-06T03:39:56.159Z,101489.63
2023-04-06T03:42:23.419Z,101497.66
2023-04-06T03:44:50.597Z,101504.00
2023-04-06T03:47:17.790Z,101502.03
2023-04-06T03:49:47.962Z,101505.78
2023-04-06T03:52:15.212Z,101507.59
2023-04-06T03:54:42.377Z,101508.47
2023-04-06T03:57:09.549Z,101513.16
2023-04-06T03:59:36.834Z,101514.13
2023-04-06T04:02:06.816Z,101518.53
2023-04-06T04:04:34.075Z,101522.94
2023-04-06T04:07:01.285Z,101528.31
2023-04-06T04:09:29.778Z,101523.88
2023-04-06T04:11:57.316Z,101517.78
2023-04-06T04:14:27.465Z,101515.13
2023-04-06T04:16:54.738Z,101516.72
2023-04-06T04:19:22.027Z,101521.19
2023-04-06T04:21:49.233Z,101525.81
2023-04-06T04:24:18.963Z,101523.03
2023-04-06T04:26:46.270Z,101521.41
2023-04-06T04:29:13.597Z,101525.19
2023-04-06T04:31:40.906Z,101525.06
2023-04-06T04:34:08.104Z,101525.06
2023-04-06T04:36:35.321Z,101526.88
2023-04-06T04:39:02.541Z,101520.66
2023-04-06T04:41:29.862Z,101527.66
2023-04-06T04:43:57.120Z,101524.00
2023-04-06T04:46:24.325Z,101529.25
2023-04-06T04:48:51.506Z,101524.19
2023-04-06T04:51:18.728Z,101528.31
2023-04-06T04:53:46.142Z,101529.88
2023-04-06T04:56:13.397Z,101539.53
2023-04-06T04:58:40.649Z,101542.13
2023-04-06T05:01:07.923Z,101533.13
2023-04-06T05:03:35.397Z,101536.56
2023-04-06T05:06:02.812Z,101538.41
2023-04-06T05:08:30.134Z,101534.97
2023-04-06T05:10:57.369Z,101534.97
2023-04-06T05:13:24.592Z,101537.50
2023-04-06T05:15:51.877Z,101535.59
2023-04-06T05:18:19.153Z,101539.06
2023-04-06T05:20:46.656Z,101540.09
2023-04-06T05:23:13.981Z,101546.44
2023-04-06T05:25:41.762Z,101540.97
2023-04-06T05:28:08.945Z,101545.25
2023-04-06T05:30:36.776Z,101548.88
2023-04-06T05:33:04.267Z,101546.75
2023-04-06T05:35:31.706Z,101550.28
2023-04-06T05:37:58.946Z,101549.56
2023-04-06T05:40:26.181Z,101551.06
2023-04-06T05:42:53.380Z,101552.69
2023-04-06T05:45:21.631Z,101549.25
2023-04-06T05:47:48.847Z,101551.06
2023-04-06T05:50:16.870Z,101550.75
2023-04-06T05:52:46.199Z,101551.59
2023-04-06T05:55:13.707Z,101552.34
2023-04-06T05:57:40.914Z,101547.66
2023-04-06T06:00:10.709Z,101551.50
2023-04-06T06:02:38.055Z,101556.66
2023-04-06T06:05:05.557Z,101553.13
2023-04-06T06:07:33.060Z,101551.31
2023-04-06T06:10:00.690Z,101555.59
2023-04-06T06:12:27.955Z,101551.94
2023-04-06T06:14:56.442Z,101548.28
2023-04-06T06:17:23.755Z,101553.56
2023-04-06T06:19:51.133Z,101563.09
2023-04-06T06:22:18.331Z,101563.09
2023-04-06T06:24:45.923Z,101558.59
2023-04-06T06:27:13.177Z,101562.91
2023-04-06T06:29:40.425Z,101557.00
2023-04-06T06:32:09.876Z,101555.41
2023-04-06T06:34:37.346Z,101553.47
2023-04-06T06:37:04.579Z,101557.66
2023-04-06T06:39:31.754Z,101562.06
2023-04-06T06:42:01.528Z,101564.31
2023-04-06T06:44:29.160Z,101556.28
2023-04-06T06:46:56.640Z,101559.59
2023-04-06T06:49:23.912Z,101566.53
2023-04-06T06:51:51.660Z,101564.66
2023-04-06T06:54:19.102Z,101560.53
2023-04-06T06:56:46.353Z,101562.28
2023-04-06T06:59:13.795Z,101557.47
2023-04-06T07:01:43.996Z,101558.63
2023-04-06T07:04:11.399Z,101559.50
2023-04-06T07:06:38.947Z,101559.50
2023-04-06T07:09:06.292Z,101557.72
2023-04-06T07:11:33.919Z,101559.31
2023-04-06T07:14:01.204Z,101560.16
2023-04-06T07:16:29.040Z,101566.41
2023-04-06T07:18:56.704Z,101568.84
2023-04-06T07:21:23.901Z,101562.16
2023-04-06T07:23:51.774Z,101563.56
2023-04-06T07:26:19.257Z,101567.09
2023-04-06T07:28:46.438Z,101568.28
2023-04-06T07:31:13.702Z,101567.72
2023-04-06T07:33:41.020Z,101569.97
2023-04-06T07:36:08.464Z,101558.13
2023-04-06T07:38:35.758Z,101558.38
2023-04-06T07:41:04.962Z,101557.75
2023-04-06T07:43:32.526Z,101557.16
2023-04-06T07:46:01.701Z,101554.03
2023-04-06T07:48:28.951Z,101555.88
2023-04-06T07:51:03.217Z,101549.41
2023-04-06T07:53:31.414Z,101558.34
2023-04-06T07:56:00.106Z,101556.94
2023-04-06T07:58:27.445Z,101564.03
2023-04-06T08:00:56.345Z,101556.16
2023-04-06T08:03:26.714Z,101549.25
2023-04-06T08:05:57.291Z,101553.03
2023-04-06T08:08:24.614Z,101551.53
2023-04-06T08:10:52.092Z,101553.47
2023-04-06T08:13:19.279Z,101557.22
2023-04-06T08:15:46.606Z,101545.72
2023-04-06T08:18:13.821Z,101548.72
2023-04-06T08:20:41.353Z,101555.63
2023-04-06T08:23:10.282Z,101548.53
2023-04-06T08:25:37.556Z,101546.16
2023-04-06T08:28:05.735Z,101552.84
2023-04-06T08:30:33.269Z,101546.06
2023-04-06T08:33:00.522Z,101552.63
2023-04-06T08:35:28.312Z,101553.41
2023-04-06T08:37:57.061Z,101547.81
2023-04-06T08:40:24.578Z,101551.97
2023-04-06T08:42:55.703Z,101548.53
2023-04-06T08:45:23.299Z,101549.09
2023-04-06T08:47:53.175Z,101549.19
2023-04-06T08:50:20.960Z,101547.47
2023-04-06T08:52:51.363Z,101540.91
2023-04-06T08:55:18.652Z,101546.41
2023-04-06T08:57:47.426Z,101543.59
2023-04-06T09:00:15.666Z,101556.59
2023-04-06T09:02:45.031Z,101543.50
2023-04-06T09:05:12.538Z,101549.50
2023-04-06T09:07:39.857Z,101538.88
2023-04-06T09:10:07.753Z,101550.59
2023-04-06T09:12:35.753Z,101540.69
2023-04-06T09:15:03.549Z,101543.38
2023-04-06T09:17:33.771Z,101537.06
2023-04-06T09:20:03.080Z,101535.97
2023-04-06T09:22:40.234Z,101533.41
2023-04-06T09:25:09.520Z,101525.38
2023-04-06T09:27:38.236Z,101533.50
2023-04-06T09:30:16.834Z,101522.03
2023-04-06T09:32:49.321Z,101525.47
2023-04-06T09:35:16.673Z,101527.41
2023-04-06T09:37:44.558Z,101522.34
2023-04-06T09:40:12.348Z,101522.34
2023-04-06T09:42:41.478Z,101517.84
2023-04-06T09:45:09.190Z,101523.66
2023-04-06T09:47:41.210Z,101525.16
2023-04-06T09:50:09.716Z,101517.41
2023-04-06T09:52:50.500Z,101519.38
2023-04-06T09:55:38.162Z,101517.88
2023-04-06T09:58:10.803Z,101511.63
2023-04-06T10:00:45.832Z,101514.22
2023-04-06T10:03:27.721Z,101508.72
2023-04-06T10:06:01.149Z,101513.38
2023-04-06T10:08:32.508Z,101509.16
2023-04-06T10:11:01.737Z,101496.28
2023-04-06T10:13:29.143Z,101506.25
2023-04-06T10:15:57.990Z,101508.72
2023-04-06T10:18:25.310Z,101505.81
2023-04-06T10:20:56.254Z,101504.66
2023-04-06T10:23:37.747Z,101495.72
2023-04-06T10:26:05.514Z,101492.63
2023-04-06T10:28:37.366Z,101503.25
2023-04-06T10:31:07.949Z,101495.31
2023-04-06T10:33:35.636Z,101501.66
2023-04-06T10:36:16.562Z,101487.03
2023-04-06T10:38:44.047Z,101486.31
2023-04-06T10:41:13.033Z,101489.22
2023-04-06T10:43:41.536Z,101482.88
2023-04-06T10:46:09.930Z,101483.31
2023-04-06T10:48:44.865Z,101491.25
2023-04-06T10:51:14.215Z,101484.06
2023-04-06T10:53:49.922Z,101487.69
2023-04-06T10:56:18.870Z,101479.34
2023-04-06T10:58:50.613Z,101477.28
2023-04-06T11:01:19.089Z,101482.06
2023-04-06T11:03:50.880Z,101479.63
2023-04-06T11:06:27.732Z,101483.06
2023-04-06T11:08:55.784Z,101476.84
2023-04-06T11:11:24.560Z,101483.91
2023-04-06T11:13:56.728Z,101472.09
2023-04-06T11:16:26.203Z,101472.09
2023-04-06T11:19:02.947Z,101468.56
2023-04-06T11:21:46.529Z,101473.94
2023-04-06T11:24:13.743Z,101468.03
2023-04-06T11:26:43.030Z,101469.53
2023-04-06T11:29:10.420Z,101472.31
2023-04-06T11:31:55.064Z,101463.28
2023-04-06T11:34:23.898Z,101461.38
2023-04-06T11:36:57.674Z,101455.38
2023-04-06T11:39:26.598Z,101456.00
2023-04-06T11:42:05.554Z,101453.44
2023-04-06T11:44:36.300Z,101451.59
2023-04-06T11:47:08.160Z,101451.69
2023-04-06T11:49:37.926Z,101447.09
2023-04-06T11:52:25.264Z,101450.75
2023-04-06T11:54:53.810Z,101450.63
2023-04-06T11:57:25.462Z,101456.00
2023-04-06T11:59:53.015Z,101441.59
2023-04-06T12:02:20.440Z,101440.03
2023-04-06T12:04:47.807Z,101442.44
2023-04-06T12:07:15.046Z,101433.53
2023-04-06T12:09:43.742Z,101436.22
2023-04-06T12:12:11.045Z,101439.13
2023-04-06T12:14:38.359Z,101428.09
2023-04-06T12:17:05.852Z,101427.09
2023-04-06T12:19:33.320Z,101433.44
2023-04-06T12:22:00.795Z,101439.03
2023-04-06T12:24:29.693Z,101433.53
2023-04-06T12:27:08.653Z,101431.72
2023-04-06T12:29:39.737Z,101431.50
2023-04-06T12:32:07.233Z,101422.59
2023-04-06T12:34:34.505Z,101421.72
2023-04-06T12:37:01.844Z,101425.25
2023-04-06T12:39:29.538Z,101427.00
2023-04-06T12:41:57.353Z,101420.53
2023-04-06T12:44:25.580Z,101416.13
2023-04-06T12:46:54.273Z,101408.84
2023-04-06T12:49:22.988Z,101409.78
2023-04-06T12:51:51.257Z,101408.72
2023-04-06T12:54:18.572Z,101415.91
2023-04-06T12:56:45.974Z,101410.53
2023-04-06T12:59:13.237Z,101407.41
2023-04-06T13:01:40.528Z,101407.41
2023-04-06T13:04:07.688Z,101406.31
2023-04-06T13:06:34.970Z,101400.81
2023-04-06T13:09:02.382Z,101398.13
2023-04-06T13:11:30.898Z,101388.16
2023-04-06T13:13:58.127Z,101395.34
2023-04-06T13:16:25.339Z,101390.94
2023-04-06T13:18:52.601Z,101396.44
2023-04-06T13:21:21.699Z,101393.00
2023-04-06T13:23:48.990Z,101388.72
2023-04-06T13:26:17.619Z,101383.47
2023-04-06T13:28:45.149Z,101375.41
2023-04-06T13:31:12.553Z,101372.84
2023-04-06T13:33:41.722Z,101371.13
2023-04-06T13:36:09.476Z,101373.72
2023-04-06T13:38:43.010Z,101370.81
2023-04-06T13:41:10.656Z,101363.59
2023-04-06T13:43:37.878Z,101354.56
2023-04-06T13:46:05.538Z,101359.84
2023-04-06T13:48:32.847Z,101363.47
2023-04-06T13:51:12.567Z,101364.97
2023-04-06T13:53:41.601Z,101358.63
2023-04-06T13:56:09.439Z,101356.66
2023-04-06T13:58:37.218Z,101351.28
2023-04-06T14:01:08.918Z,101351.41
2023-04-06T14:03:36.854Z,101359.84
2023-04-06T14:06:31.119Z,101361.56
2023-04-06T14:08:58.950Z,101365.34
2023-04-06T14:11:26.117Z,101361.06
2023-04-06T14:13:53.566Z,101369.53
2023-04-06T14:16:24.196Z,101351.69
2023-04-06T14:18:52.175Z,101358.03
2023-04-06T14:21:19.857Z,101355.13
2023-04-06T14:23:47.587Z,101351.47
2023-04-06T14:26:14.957Z,101355.03
2023-04-06T14:28:42.345Z,101360.28
2023-04-06T14:31:14.205Z,101350.28
2023-04-06T14:33:41.873Z,101350.16
2023-04-06T14:36:09.605Z,101361.63
2023-04-06T14:38:37.319Z,101358.19
2023-04-06T14:41:04.660Z,101350.03
2023-04-06T14:43:32.175Z,101351.66
2023-04-06T14:46:03.263Z,101351.75
2023-04-06T14:48:30.673Z,101345.16
2023-04-06T14:50:58.324Z,101350.44
2023-04-06T14:53:25.968Z,101342.47
2023-04-06T14:55:53.700Z,101343.09
2023-04-06T14:58:21.532Z,101345.78
2023-04-06T15:00:49.330Z,101342.13
2023-04-06T15:03:17.168Z,101343.84
2023-04-06T15:05:46.841Z,101348.47
2023-04-06T15:08:16.177Z,101345.66
2023-04-06T15:10:43.931Z,101348.22
2023-04-06T15:13:11.176Z,101338.47
2023-04-06T15:15:38.868Z,101335.69
2023-04-06T15:18:06.501Z,101346.41
2023-04-06T15:20:35.174Z,101334.78
2023-04-06T15:23:05.580Z,101344.81
2023-04-06T15:25:32.897Z,101337.47
2023-04-06T15:28:01.281Z,101341.91
2023-04-06T15:30:29.032Z,101334.94
2023-04-06T15:33:06.743Z,101340.16
2023-04-06T15:35:42.753Z,101334.69
2023-04-06T15:38:10.738Z,101326.72
2023-04-06T15:40:48.538Z,101323.94
2023-04-06T15:43:19.235Z,101326.50
2023-04-06T15:45:47.151Z,101323.81
2023-04-06T15:48:14.333Z,101327.25
2023-04-06T15:50:41.757Z,101329.19
2023-04-06T15:53:09.015Z,101326.41
2023-04-06T15:55:36.257Z,101328.34
2023-04-06T15:58:03.436Z,101335.53
2023-04-06T16:00:31.171Z,101328.84
2023-04-06T16:02:58.469Z,101328.22
2023-04-06T16:05:28.323Z,101330.91
2023-04-06T16:07:56.806Z,101335.06
2023-04-06T16:10:24.097Z,101339.94
2023-04-06T16:12:52.294Z,101329.94
2023-04-06T16:15:19.569Z,101321.72
2023-04-06T16:17:46.916Z,101334.31
2023-04-06T16:20:15.759Z,101325.53
2023-04-06T16:22:43.317Z,101329.78
2023-04-06T16:25:11.823Z,101331.63
2023-04-06T16:27:39.006Z,101338.97
2023-04-06T16:30:07.470Z,101340.81
2023-04-06T16:32:35.002Z,101340.91
2023-04-06T16:35:03.711Z,101339.94
2023-04-06T16:37:31.436Z,101336.28
2023-04-06T16:39:59.698Z,101330.69
2023-04-06T16:42:27.676Z,101340.66
2023-04-06T16:44:54.961Z,101333.59
2023-04-06T16:47:23.951Z,101337.75
2023-04-06T16:49:55.032Z,101336.28
2023-04-06T16:52:33.935Z,101337.25
2023-04-06T16:55:01.615Z,101343.22
2023-04-06T16:57:31.852Z,101336.06
2023-04-06T16:59:59.156Z,101335.16
2023-04-06T17:02:26.613Z,101331.75
2023-04-06T17:04:54.015Z,101335.44
2023-04-06T17:07:25.515Z,101344.34
2023-04-06T17:09:52.823Z,101339.06
2023-04-06T17:12:20.012Z,101346.28
2023-04-06T17:14:47.448Z,101349.94
2023-04-06T17:17:14.902Z,101341.28
2023-04-06T17:19:42.138Z,101351.41
2023-04-06T17:22:09.358Z,101345.28
2023-04-06T17:24:36.558Z,101350.91
2023-04-06T17:27:03.806Z,101347.50
2023-04-06T17:29:31.029Z,101347.38
2023-04-06T17:31:58.198Z,101356.28
2023-04-06T17:34:25.762Z,101347.38
2023-04-06T17:36:52.975Z,101361.53
2023-04-06T17:39:20.512Z,101358.63
2023-04-06T17:41:47.808Z,101360.41
2023-04-06T17:44:15.007Z,101370.41
2023-04-06T17:46:42.479Z,101367.75
2023-04-06T17:49:09.686Z,101366.88
2023-04-06T17:51:39.735Z,101366.03
2023-04-06T17:54:07.225Z,101375.16
2023-04-06T17:56:34.441Z,101374.56
2023-04-06T17:59:02.681Z,101366.41
2023-04-06T18:01:31.584Z,101377.00
2023-04-06T18:03:58.929Z,101377.00
2023-04-06T18:06:26.296Z,101373.69
2023-04-06T18:08:53.934Z,101378.97
2023-04-06T18:11:25.820Z,101377.00
2023-04-06T18:13:53.533Z,101390.19
2023-04-06T18:16:21.272Z,101386.03
2023-04-06T18:18:51.692Z,101393.13
2023-04-06T18:21:18.980Z,101389.72
2023-04-06T18:23:46.687Z,101391.19
2023-04-06T18:26:18.392Z,101394.84
2023-04-06T18:28:46.566Z,101393.78
2023-04-06T18:31:14.245Z,101401.13
2023-04-06T18:33:41.474Z,101405.72
2023-04-06T18:36:09.826Z,101396.06
2023-04-06T18:38:39.264Z,101396.94
2023-04-06T18:41:06.945Z,101398.53
2023-04-06T18:43:34.747Z,101405.25
2023-04-06T18:46:01.924Z,101409.63
2023-04-06T18:48:29.180Z,101403.50
2023-04-06T18:51:01.679Z,101406.72
2023-04-06T18:53:29.007Z,101407.16
2023-04-06T18:55:59.537Z,101407.28
2023-04-06T18:58:27.199Z,101405.47
2023-04-06T19:00:54.794Z,101411.69
2023-04-06T19:03:22.436Z,101414.06
2023-04-06T19:05:50.139Z,101406.78
2023-04-06T19:08:17.648Z,101418.19
2023-04-06T19:10:45.290Z,101414.97
2023-04-06T19:13:12.604Z,101423.25
2023-04-06T19:15:42.753Z,101420.13
2023-04-06T19:18:10.473Z,101421.63
2023-04-06T19:20:37.661Z,101414.81
2023-04-06T19:23:04.893Z,101417.53
2023-04-06T19:25:32.107Z,101418.25
2023-04-06T19:27:59.354Z,101416.78
2023-04-06T19:30:27.008Z,101412.66
2023-04-06T19:32:55.010Z,101411.94
2023-04-06T19:35:22.586Z,101415.34
2023-04-06T19:37:49.987Z,101416.94
2023-04-06T19:40:17.511Z,101418.78
2023-04-06T19:42:44.990Z,101424.78
2023-04-06T19:45:12.429Z,101423.78
2023-04-06T19:47:40.071Z,101417.56
2023-04-06T19:50:10.280Z,101422.09
2023-04-06T19:52:38.712Z,101414.88
2023-04-06T19:55:06.376Z,101416.50
2023-04-06T19:57:33.680Z,101415.03
2023-04-06T20:00:01.277Z,101421.59
2023-04-06T20:02:28.769Z,101424.50
2023-04-06T20:04:56.207Z,101425.44
2023-04-06T20:07:23.408Z,101418.19
2023-04-06T20:09:50.778Z,101417.97
2023-04-06T20:12:17.970Z,101422.47
2023-04-06T20:14:45.328Z,101423.84
2023-04-06T20:17:12.496Z,101425.72
2023-04-06T20:19:39.897Z,101420.63
2023-04-06T20:22:07.389Z,101420.84
2023-04-06T20:24:34.544Z,101424.63
2023-04-06T20:27:01.804Z,101420.97
2023-04-06T20:29:29.047Z,101426.03
2023-04-06T20:31:56.460Z,101422.72
2023-04-06T20:34:25.990Z,101420.25
2023-04-06T20:36:53.780Z,101425.41
2023-04-06T20:39:21.124Z,101429.50
2023-04-06T20:41:48.568Z,101426.19
2023-04-06T20:44:16.517Z,101425.22
2023-04-06T20:46:45.698Z,101418.56
2023-04-06T20:49:13.525Z,101421.22
2023-04-06T20:51:44.081Z,101418.25
2023-04-06T20:54:11.286Z,101422.66
2023-04-06T20:56:38.489Z,101424.34
2023-04-06T20:59:05.912Z,101420.69
2023-04-06T21:01:33.365Z,101426.19
2023-04-06T21:04:02.573Z,101418.34
2023-04-06T21:06:32.253Z,101426.06
2023-04-06T21:09:00.421Z,101419.13
2023-04-06T21:11:27.607Z,101419.22
2023-04-06T21:13:54.811Z,101421.88
2023-04-06T21:16:22.160Z,101418.13
2023-04-06T21:18:49.410Z,101422.09
2023-04-06T21:21:16.657Z,101412.00
2023-04-06T21:23:43.890Z,101416.94
2023-04-06T21:26:13.038Z,101416.22
2023-04-06T21:28:40.238Z,101410.22
2023-04-06T21:31:10.782Z,101414.03
2023-04-06T21:33:38.063Z,101414.69
2023-04-06T21:36:06.565Z,101416.84
2023-04-06T21:38:35.185Z,101420.69
2023-04-06T21:41:02.619Z,101419.22
2023-04-06T21:43:30.004Z,101416.72
2023-04-06T21:45:59.957Z,101420.59
2023-04-06T21:48:27.173Z,101417.34
2023-04-06T21:50:54.842Z,101420.78
2023-04-06T21:53:22.340Z,101409.44
2023-04-06T21:55:49.822Z,101406.88
2023-04-06T21:58:17.359Z,101409.53
2023-04-06T22:00:44.677Z,101411.06
2023-04-06T22:03:12.118Z,101409.25
2023-04-06T22:05:39.607Z,101402.91
2023-04-06T22:10:34.555Z,101409.13
2023-04-06T22:13:01.883Z,101404.59
2023-04-06T22:15:29.058Z,101409.03
2023-04-06T22:17:56.426Z,101410.94
2023-04-06T22:20:23.792Z,101402.91
2023-04-06T22:22:51.041Z,101401.81
2023-04-06T22:25:18.252Z,101401.41
2023-04-06T22:27:45.637Z,101400.22
2023-04-06T22:30:13.087Z,101404.59
2023-04-06T22:32:40.359Z,101399.13
2023-04-06T22:35:08.138Z,101402.81
2023-04-06T22:37:35.365Z,101401.81
2023-04-06T22:40:02.631Z,101399.00
2023-04-06T22:42:29.791Z,101396.25
2023-04-06T22:44:56.995Z,101402.28
2023-04-06T22:47:24.273Z,101390.69
2023-04-06T22:49:51.465Z,101401.47
2023-04-06T22:52:18.751Z,101397.88
2023-04-06T22:54:46.163Z,101401.41
2023-04-06T22:57:13.402Z,101392.63
2023-04-06T22:59:40.570Z,101404.00
2023-04-06T23:02:07.996Z,101397.56
2023-04-06T23:04:35.772Z,101404.88
2023-04-06T23:07:03.526Z,101396.50
2023-04-06T23:09:31.058Z,101404.13
2023-04-06T23:11:58.308Z,101398.53
2023-04-06T23:14:25.558Z,101397.34
2023-04-06T23:16:52.783Z,101399.03
2023-04-06T23:19:20.049Z,101391.66
2023-04-06T23:21:47.216Z,101393.38
2023-04-06T23:24:14.673Z,101394.44
2023-04-06T23:26:41.849Z,101393.25
2023-04-06T23:29:09.002Z,101388.75
2023-04-06T23:31:36.430Z,101380.81
2023-04-06T23:34:03.827Z,101382.50
2023-04-06T23:36:31.783Z,101384.97
2023-04-06T23:38:59.030Z,101391.31
2023-04-06T23:41:26.479Z,101385.09
2023-04-06T23:43:54.005Z,101385.97
2023-04-06T23:46:21.534Z,101384.25
2023-04-06T23:48:48.808Z,101385.97
2023-04-06T23:51:16.127Z,101390.25
2023-04-06T23:53:44.006Z,101390.47
2023-04-06T23:56:11.694Z,101385.75
2023-04-06T23:58:39.141Z,101380.38
